Birigui, Brazil
Current Conditions -  °F | °C
As of 10:00 AM on Saturday 25 Oct 2014 (Local Time) from SBAU Reporting Station
Drizzle Drizzle  
Wind Chill: 72°   Ceiling: 2000
Heat Index: 72°   Visibility: 4mi
Dew Point: 70°   Wind: 5mph
Humidity: 94%   Direction: 110°ESE
Pressure: 30"   Gusts: NA
Location:  21.29°S, 50.34°W
Report Text: SBAU 251200Z 11004KT 7000 -DZ SCT012 BKN020 OVC090 22/21 Q1016
Loading
Personal Weather Stations






























Interactive Weather Map
Tropical Storm Tracking
New forecast layout! Learn more

10-Day Weather Forecast

Advertisements
Track Severe Weather on mobile